Veersedijk — PBCX — position and weather

sailwx.info

Track history (hours):
 
Tides and Currents Weather Stations Pressure Air Temp Water Temp Dewpoint Dewpoint Depression Visibility Wind Speed Wind Dir Waves Ship Positions

Veersedijk

Last reported at 2017-Mar-23 12:24 UTC. Time now 2017-Mar-23 12:35 UTC.
Position N 50°30' W 000°14'.

Length 132 m; draft 5.2 m.

Type: Cargo ship. MMSI: 244268000.

Date/timePositionNaut miles runAvg speedWind from/ knotsBaromVisibWave heightAir tempDewpointWater temp
2017-Mar-23 12:24N 50°30' W 000°14'2 2.1
2017-Mar-23 11:33N 50°31' W 000°11'1 0.5
2017-Mar-23 10:29N 50°30' W 000°12'2 1.7
2017-Mar-23 09:34N 50°31' W 000°09'1 1.0
2017-Mar-23 08:18N 50°30' W 000°08'1 1.0
2017-Mar-23 07:29N 50°31' W 000°09'1 1.3
2017-Mar-23 06:33N 50°29' W 000°10'6 5.7
2017-Mar-23 05:33N 50°33' W 000°03'3 2.4
2017-Mar-23 04:22N 50°36' W 000°01'0 0.5
2017-Mar-23 03:31N 50°35' W 000°01'0 0.1
2017-Mar-23 02:28N 50°35' W 000°01'0 0.3
2017-Mar-23 01:31N 50°35' W 000°01'1 0.6
2017-Mar-23 00:33N 50°35' E 000°00'1 0.6
2017-Mar-22 23:30N 50°34' E 000°01'1 1.0
2017-Mar-22 22:32N 50°34' E 000°03'2 2.1
2017-Mar-22 21:33N 50°33' E 000°06'7 6.9
2017-Mar-22 20:33N 50°29' E 000°14'  
2017-Mar-16 05:17N 50°17' E 000°04'9 8.0
2017-Mar-16 04:06N 50°16' W 000°11'8 7.9
2017-Mar-16 03:04N 50°14' W 000°23'6 8.1
2017-Mar-16 02:21N 50°12' W 000°32'7 8.9
2017-Mar-16 01:32N 50°11' W 000°43'1010.3
2017-Mar-16 00:32N 50°09' W 000°59'1212.0
2017-Mar-15 23:32N 50°07' W 001°17'1313.0
2017-Mar-15 22:33N 50°06' W 001°37'38 3.6
2017-Mar-15 12:05N 50°06' W 002°37'24 2.8
2017-Mar-15 03:22N 50°10' W 001°59'1113.7
2017-Mar-15 02:33N 50°12' W 001°42'54 8.5
2017-Mar-14 20:11N 50°21' W 000°18'6 8.7
2017-Mar-14 19:28N 50°21' W 000°08'15 1.9
2017-Mar-14 11:26N 50°19' E 000°15'6 5.8
2017-Mar-14 10:23N 50°23' E 000°09'3 2.8
2017-Mar-14 09:09N 50°25' E 000°04'1 1.9
2017-Mar-14 08:33N 50°25' E 000°02'9 8.0
2017-Mar-14 07:29N 50°31' W 000°08'1 1.5
2017-Mar-14 06:33N 50°32' W 000°08'1 1.4
2017-Mar-14 05:33N 50°33' W 000°10'3 2.8
2017-Mar-14 04:25N 50°32' W 000°15'1 1.2
2017-Mar-14 03:33N 50°32' W 000°13'1 1.1
2017-Mar-14 02:31N 50°32' W 000°11'1 0.9
2017-Mar-14 01:28N 50°33' W 000°10'1 1.0
2017-Mar-14 00:33N 50°33' W 000°08'5 4.5
2017-Mar-13 23:33N 50°33' W 000°01'4 3.5
2017-Mar-13 22:30N 50°33' E 000°05'5 5.3
2017-Mar-13 21:33N 50°29' E 000°07'4 4.0
2017-Mar-13 20:33N 50°25' E 000°08'2 1.7
2017-Mar-13 19:28N 50°23' E 000°06'2 2.6
2017-Mar-13 18:33N 50°23' E 000°02'0 0.4
2017-Mar-13 17:29N 50°23' E 000°02'1 1.2
2017-Mar-13 16:33N 50°24' E 000°02'1 1.0
2017-Mar-13 15:33N 50°25' E 000°03'1 1.2
2017-Mar-13 14:32N 50°23' E 000°04'  
Track history (hours):
 
Tides and Currents Weather Stations Pressure Air Temp Water Temp Dewpoint Dewpoint Depression Visibility Wind Speed Wind Dir Waves Ship Positions

Veersedijk

Last reported at 2017-Mar-23 12:24 UTC. Time now 2017-Mar-23 12:35 UTC.
Position N 50°30' W 000°14'.

Length 132 m; draft 5.2 m.

Type: Cargo ship. MMSI: 244268000.

Date/timePositionNaut miles runAvg speedWind from/ knotsBaromVisibWave heightAir tempDewpointWater temp
2017-Mar-23 12:24N 50°30' W 000°14'2 2.1
2017-Mar-23 11:33N 50°31' W 000°11'1 0.5
2017-Mar-23 10:29N 50°30' W 000°12'2 1.7
2017-Mar-23 09:34N 50°31' W 000°09'1 1.0
2017-Mar-23 08:18N 50°30' W 000°08'1 1.0
2017-Mar-23 07:29N 50°31' W 000°09'1 1.3
2017-Mar-23 06:33N 50°29' W 000°10'6 5.7
2017-Mar-23 05:33N 50°33' W 000°03'3 2.4
2017-Mar-23 04:22N 50°36' W 000°01'0 0.5
2017-Mar-23 03:31N 50°35' W 000°01'0 0.1
2017-Mar-23 02:28N 50°35' W 000°01'0 0.3
2017-Mar-23 01:31N 50°35' W 000°01'1 0.6
2017-Mar-23 00:33N 50°35' E 000°00'1 0.6
2017-Mar-22 23:30N 50°34' E 000°01'1 1.0
2017-Mar-22 22:32N 50°34' E 000°03'2 2.1
2017-Mar-22 21:33N 50°33' E 000°06'7 6.9
2017-Mar-22 20:33N 50°29' E 000°14'  
2017-Mar-16 05:17N 50°17' E 000°04'9 8.0
2017-Mar-16 04:06N 50°16' W 000°11'8 7.9
2017-Mar-16 03:04N 50°14' W 000°23'6 8.1
2017-Mar-16 02:21N 50°12' W 000°32'7 8.9
2017-Mar-16 01:32N 50°11' W 000°43'1010.3
2017-Mar-16 00:32N 50°09' W 000°59'1212.0
2017-Mar-15 23:32N 50°07' W 001°17'1313.0
2017-Mar-15 22:33N 50°06' W 001°37'38 3.6
2017-Mar-15 12:05N 50°06' W 002°37'24 2.8
2017-Mar-15 03:22N 50°10' W 001°59'1113.7
2017-Mar-15 02:33N 50°12' W 001°42'54 8.5
2017-Mar-14 20:11N 50°21' W 000°18'6 8.7
2017-Mar-14 19:28N 50°21' W 000°08'15 1.9
2017-Mar-14 11:26N 50°19' E 000°15'6 5.8
2017-Mar-14 10:23N 50°23' E 000°09'3 2.8
2017-Mar-14 09:09N 50°25' E 000°04'1 1.9
2017-Mar-14 08:33N 50°25' E 000°02'9 8.0
2017-Mar-14 07:29N 50°31' W 000°08'1 1.5
2017-Mar-14 06:33N 50°32' W 000°08'1 1.4
2017-Mar-14 05:33N 50°33' W 000°10'3 2.8
2017-Mar-14 04:25N 50°32' W 000°15'1 1.2
2017-Mar-14 03:33N 50°32' W 000°13'1 1.1
2017-Mar-14 02:31N 50°32' W 000°11'1 0.9
2017-Mar-14 01:28N 50°33' W 000°10'1 1.0
2017-Mar-14 00:33N 50°33' W 000°08'5 4.5
2017-Mar-13 23:33N 50°33' W 000°01'4 3.5
2017-Mar-13 22:30N 50°33' E 000°05'5 5.3
2017-Mar-13 21:33N 50°29' E 000°07'4 4.0
2017-Mar-13 20:33N 50°25' E 000°08'2 1.7
2017-Mar-13 19:28N 50°23' E 000°06'2 2.6
2017-Mar-13 18:33N 50°23' E 000°02'0 0.4
2017-Mar-13 17:29N 50°23' E 000°02'1 1.2
2017-Mar-13 16:33N 50°24' E 000°02'1 1.0
2017-Mar-13 15:33N 50°25' E 000°03'1 1.2
2017-Mar-13 14:32N 50°23' E 000°04'  

Dump ship's entire track history